ADDS METAR Data INFO
IDs: Format: Raw Decoded Include TAF

Data at: 0033 UTC 17 Dec 2017

KJEF 162353Z 21006KT 10SM CLR 13/M04 A3000 RMK AO2 SLP150 T01331044 10167 20133 53023
KJEF 162253Z 20004KT 10SM CLR 15/M04 A2996 RMK AO2 SLP137 T01501044
KJEF 162153Z 22011G17KT 10SM CLR 16/M04 A2994 RMK AO2 SLP130 T01611044
KJEF 162053Z 22014G19KT 10SM CLR 17/M04 A2993 RMK AO2 SLP125 T01671044 56010
KJEF 161953Z 22011G21KT 10SM CLR 17/M03 A2993 RMK AO2 SLP126 T01671033
KJEF 161853Z 22010G19KT 10SM CLR 16/M03 A2994 RMK AO2 SLP130 T01561028
KJEF 161753Z 21011G18KT 10SM CLR 13/M03 A2996 RMK AO2 SLP137 T01331033 10133 20017 58010
KJEF 161653Z 20007KT 10SM CLR 11/M03 A2998 RMK AO2 SLP145 T01111033
KJEF 161553Z 20007KT 10SM CLR 08/M03 A3000 RMK AO2 SLP150 T00781033
KJEF 161453Z 18003KT 10SM CLR 05/M04 A2999 RMK AO2 SLP149 T00501039 52010
KJEF 161353Z 12005KT 10SM CLR 02/M04 A2998 RMK AO2 SLP145 T00221044
KJEF 161253Z VRB04KT 10SM CLR 03/M04 A2997 RMK AO2 SLP143 T00331044
KJEF 161153Z 13003KT 10SM CLR 03/M04 A2996 RMK AO2 SLP139 T00281044 10028 20011 56012
KJEF 161053Z AUTO VRB03KT 10SM CLR 02/M04 A2997 RMK AO2 SLP142 T00171044
KJEF 160953Z AUTO 18006KT 10SM CLR 02/M04 A2998 RMK AO2 SLP147 T00221044
KJEF 160853Z AUTO 15004KT 10SM CLR 03/M04 A3000 RMK AO2 SLP151 T00281039 56005
KJEF 160753Z AUTO 18005KT 10SM CLR 03/M04 A3000 RMK AO2 SLP152 T00281039
KJEF 160653Z AUTO VRB04KT 10SM CLR 02/M04 A3001 RMK AO2 SLP154 T00171044
KJEF 160553Z AUTO 12005KT 10SM CLR 02/M04 A3001 RMK AO2 SLP156 T00171044 10044 20011 400671033 58011
KJEF 160453Z AUTO 12004KT 10SM CLR 02/M04 A3004 RMK AO2 SLP165 T00171039
KJEF 160353Z AUTO 10004KT 10SM CLR 02/M04 A3004 RMK AO2 SLP166 T00221039
KJEF 160253Z 15003KT 10SM CLR 02/M04 A3004 RMK AO2 SLP169 T00221039 58003
KJEF 160153Z 13003KT 10SM CLR 03/M04 A3005 RMK AO2 SLP170 T00281039
KJEF 160053Z 19003KT 10SM CLR 03/M04 A3005 RMK AO2 SLP172 T00331039
KJEF 152353Z 22004KT 10SM CLR 04/M04 A3005 RMK AO2 SLP171 T00441039 10067 20044 58007
KJEF 152253Z 24005KT 10SM CLR 05/M04 A3007 RMK AO2 SLP176 T00501039
KJEF 152153Z 26008KT 10SM CLR 06/M04 A3007 RMK AO2 SLP176 T00611039
KJEF 152053Z 23009KT 10SM CLR 06/M05 A3007 RMK AO2 SLP177 T00611050 56017
KJEF 151953Z 26010G19KT 10SM CLR 06/M06 A3008 RMK AO2 SLP182 T00611056
KJEF 151853Z 26015KT 10SM CLR 06/M06 A3010 RMK AO2 SLP186 T00561061
KJEF 151753Z 29011G22KT 10SM CLR 06/M07 A3012 RMK AO2 SLP195 T00561067 10056 21017 58004
KJEF 151653Z 29012KT 10SM FEW034 04/M05 A3015 RMK AO2 SLP205 T00441050
KJEF 151553Z 30010KT 10SM CLR 03/M03 A3015 RMK AO2 SLP204 T00281028
KJEF 151453Z 30005KT 7SM CLR 01/M03 A3014 RMK AO2 SLP200 T00061033 51005
KJEF 151353Z 00000KT 10SM OVC065 00/M04 A3013 RMK AO2 SLP197 T00001039
KJEF 151253Z 00000KT 10SM BKN040 BKN049 OVC065 M01/M04 A3013 RMK AO2 SLP199 T10111044